GLO5520 SBSP-SBGO
Flight info
| Callsign | GLO5520 |
|---|---|
| Flight time | 1h 10m |
| Altitude | 36000 |
| Route | GERTU UZ25 PUGOR/N0460F380 UZ25 CORVO |
| Aircraft | B38M/M-SDE1FGHILORVWXY/HB1 |
Departure
| Time | 2026-04-21 00:25 |
|---|---|
| Airport | Congonhas–Deputado Freitas Nobre Airport (SBSP) |
Arrival
| Time | 2026-04-21 01:35 |
|---|---|
| Airport | Santa Genoveva International Airport (SBGO) |
| Time | Latitude | Longitude | Altitude | Speed | Heading |
|---|---|---|---|---|---|
| 2026-04-20 23:57 | -23.62538 | -46.65943 | 2603 ft | 0 kts | 237° |
| 2026-04-21 00:13 | -23.62537 | -46.65942 | 2603 ft | 1 kts | 237° |
| 2026-04-21 00:14 | -23.62530 | -46.65927 | 2603 ft | 3 kts | 254° |
| 2026-04-21 00:14 | -23.62529 | -46.65908 | 2603 ft | 3 kts | 291° |
| 2026-04-21 00:14 | -23.62539 | -46.65891 | 2603 ft | 3 kts | 323° |
| 2026-04-21 00:14 | -23.62547 | -46.65885 | 2603 ft | 1 kts | 327° |
| 2026-04-21 00:15 | -23.62548 | -46.65884 | 2603 ft | 0 kts | 327° |
| 2026-04-21 00:19 | -23.62548 | -46.65885 | 2603 ft | 1 kts | 327° |
| 2026-04-21 00:20 | -23.62538 | -46.65892 | 2603 ft | 3 kts | 328° |
| 2026-04-21 00:20 | -23.62514 | -46.65908 | 2603 ft | 5 kts | 328° |
| 2026-04-21 00:20 | -23.62478 | -46.65932 | 2603 ft | 7 kts | 328° |
| 2026-04-21 00:20 | -23.62430 | -46.65966 | 2603 ft | 9 kts | 326° |
| 2026-04-21 00:21 | -23.62371 | -46.66007 | 2603 ft | 11 kts | 328° |
| 2026-04-21 00:21 | -23.62307 | -46.66038 | 2602 ft | 10 kts | 347° |
| 2026-04-21 00:21 | -23.62262 | -46.66044 | 2602 ft | 1 kts | 354° |
| 2026-04-21 00:21 | -23.62248 | -46.66045 | 2602 ft | 3 kts | 354° |
| 2026-04-21 00:22 | -23.62218 | -46.66057 | 2602 ft | 6 kts | 334° |
| 2026-04-21 00:22 | -23.62177 | -46.66084 | 2601 ft | 8 kts | 327° |
| 2026-04-21 00:22 | -23.62123 | -46.66123 | 2601 ft | 10 kts | 326° |
| 2026-04-21 00:22 | -23.62110 | -46.66132 | 2601 ft | 0 kts | 326° |
| 2026-04-21 00:23 | -23.62098 | -46.66137 | 2601 ft | 3 kts | 345° |
| 2026-04-21 00:23 | -23.62064 | -46.66134 | 2599 ft | 7 kts | 20° |
| 2026-04-21 00:23 | -23.62044 | -46.66081 | 2590 ft | 9 kts | 114° |
| 2026-04-21 00:24 | -23.62091 | -46.66045 | 2599 ft | 9 kts | 148° |
| 2026-04-21 00:24 | -23.62122 | -46.66024 | 2600 ft | 0 kts | 147° |
| 2026-04-21 00:24 | -23.62342 | -46.65871 | 2603 ft | 78 kts | 147° |
| 2026-04-21 00:25 | -23.63009 | -46.65408 | 2614 ft | 146 kts | 147° |
| 2026-04-21 00:25 | -23.63969 | -46.64728 | 2840 ft | 182 kts | 147° |
| 2026-04-21 00:25 | -23.65156 | -46.63894 | 3169 ft | 218 kts | 146° |
| 2026-04-21 00:25 | -23.66533 | -46.63090 | 3984 ft | 229 kts | 160° |
| 2026-04-21 00:26 | -23.68162 | -46.62890 | 4427 ft | 254 kts | 183° |
| 2026-04-21 00:26 | -23.69982 | -46.63385 | 4587 ft | 288 kts | 201° |
| 2026-04-21 00:26 | -23.71935 | -46.64412 | 4604 ft | 334 kts | 206° |
| 2026-04-21 00:26 | -23.74088 | -46.65468 | 5507 ft | 337 kts | 198° |
| 2026-04-21 00:27 | -23.76131 | -46.66525 | 6448 ft | 312 kts | 216° |
| 2026-04-21 00:27 | -23.77432 | -46.68273 | 6809 ft | 288 kts | 245° |
| 2026-04-21 00:27 | -23.77793 | -46.70383 | 7053 ft | 286 kts | 266° |
| 2026-04-21 00:27 | -23.78147 | -46.72491 | 7145 ft | 280 kts | 240° |
| 2026-04-21 00:28 | -23.79235 | -46.74242 | 7388 ft | 282 kts | 233° |
| 2026-04-21 00:28 | -23.80337 | -46.76000 | 8402 ft | 280 kts | 233° |
| 2026-04-21 00:28 | -23.81441 | -46.77784 | 9337 ft | 287 kts | 233° |
| 2026-04-21 00:28 | -23.82560 | -46.79607 | 10313 ft | 290 kts | 233° |
| 2026-04-21 00:29 | -23.83711 | -46.81489 | 10929 ft | 307 kts | 233° |
| 2026-04-21 00:29 | -23.84929 | -46.83489 | 11364 ft | 327 kts | 234° |
| 2026-04-21 00:29 | -23.86069 | -46.85692 | 11750 ft | 349 kts | 248° |
| 2026-04-21 00:29 | -23.86481 | -46.88352 | 12307 ft | 366 kts | 269° |
| 2026-04-21 00:30 | -23.85928 | -46.91089 | 13009 ft | 375 kts | 292° |
| 2026-04-21 00:30 | -23.84605 | -46.93566 | 13759 ft | 381 kts | 300° |
| 2026-04-21 00:30 | -23.83224 | -46.96061 | 14391 ft | 386 kts | 299° |
| 2026-04-21 00:30 | -23.81838 | -46.98594 | 15064 ft | 389 kts | 299° |
| 2026-04-21 00:31 | -23.80451 | -47.01142 | 15728 ft | 392 kts | 299° |
| 2026-04-21 00:31 | -23.79056 | -47.03709 | 16375 ft | 395 kts | 300° |
| 2026-04-21 00:31 | -23.77649 | -47.06298 | 17000 ft | 398 kts | 300° |
| 2026-04-21 00:31 | -23.76224 | -47.08899 | 17612 ft | 401 kts | 302° |
| 2026-04-21 00:32 | -23.74390 | -47.11202 | 18210 ft | 404 kts | 320° |
| 2026-04-21 00:32 | -23.72010 | -47.12829 | 18743 ft | 407 kts | 336° |
| 2026-04-21 00:32 | -23.69295 | -47.13719 | 19256 ft | 409 kts | 347° |
| 2026-04-21 00:32 | -23.66502 | -47.14403 | 19741 ft | 412 kts | 347° |
| 2026-04-21 00:33 | -23.63692 | -47.15056 | 20230 ft | 414 kts | 348° |
| 2026-04-21 00:33 | -23.60856 | -47.15695 | 20717 ft | 417 kts | 348° |
| 2026-04-21 00:33 | -23.58007 | -47.16330 | 21201 ft | 420 kts | 347° |
| 2026-04-21 00:33 | -23.55135 | -47.16964 | 21704 ft | 422 kts | 347° |
| 2026-04-21 00:34 | -23.52253 | -47.17599 | 22205 ft | 423 kts | 347° |
| 2026-04-21 00:34 | -23.49351 | -47.18236 | 22691 ft | 426 kts | 347° |
| 2026-04-21 00:34 | -23.46445 | -47.18873 | 23183 ft | 427 kts | 347° |
| 2026-04-21 00:34 | -23.43555 | -47.19506 | 23635 ft | 430 kts | 347° |
| 2026-04-21 00:35 | -23.40612 | -47.20150 | 24041 ft | 432 kts | 347° |
| 2026-04-21 00:35 | -23.37655 | -47.20797 | 24400 ft | 435 kts | 347° |
| 2026-04-21 00:35 | -23.34676 | -47.21448 | 24758 ft | 438 kts | 347° |
| 2026-04-21 00:35 | -23.31680 | -47.22103 | 25113 ft | 441 kts | 347° |
| 2026-04-21 00:36 | -23.28667 | -47.22761 | 25470 ft | 443 kts | 347° |
| 2026-04-21 00:36 | -23.25785 | -47.23390 | 25802 ft | 446 kts | 347° |
| 2026-04-21 00:36 | -23.22736 | -47.24055 | 26140 ft | 448 kts | 347° |
| 2026-04-21 00:36 | -23.19668 | -47.24723 | 26481 ft | 451 kts | 347° |
| 2026-04-21 00:37 | -23.16580 | -47.25396 | 26829 ft | 453 kts | 347° |
| 2026-04-21 00:37 | -23.13479 | -47.26071 | 27153 ft | 456 kts | 347° |
| 2026-04-21 00:37 | -23.10356 | -47.26750 | 27488 ft | 459 kts | 347° |
| 2026-04-21 00:37 | -23.07217 | -47.27433 | 27819 ft | 461 kts | 347° |
| 2026-04-21 00:38 | -23.04064 | -47.28119 | 28130 ft | 464 kts | 347° |
| 2026-04-21 00:38 | -23.00930 | -47.28800 | 28439 ft | 466 kts | 347° |
| 2026-04-21 00:38 | -22.97739 | -47.29493 | 28743 ft | 468 kts | 347° |
| 2026-04-21 00:38 | -22.94535 | -47.30189 | 29045 ft | 471 kts | 348° |
| 2026-04-21 00:39 | -22.91315 | -47.30887 | 29332 ft | 473 kts | 347° |
| 2026-04-21 00:39 | -22.88081 | -47.31589 | 29608 ft | 475 kts | 348° |
| 2026-04-21 00:39 | -22.84830 | -47.32294 | 29899 ft | 478 kts | 348° |
| 2026-04-21 00:39 | -22.81562 | -47.33002 | 30168 ft | 480 kts | 348° |
| 2026-04-21 00:40 | -22.78281 | -47.33713 | 30386 ft | 482 kts | 348° |
| 2026-04-21 00:40 | -22.74981 | -47.34427 | 30594 ft | 484 kts | 347° |
| 2026-04-21 00:40 | -22.71668 | -47.35144 | 30812 ft | 487 kts | 347° |
| 2026-04-21 00:40 | -22.68389 | -47.36056 | 31010 ft | 487 kts | 337° |
| 2026-04-21 00:41 | -22.65410 | -47.37784 | 31271 ft | 485 kts | 323° |
| 2026-04-21 00:41 | -22.62689 | -47.39941 | 31542 ft | 485 kts | 322° |
| 2026-04-21 00:41 | -22.59981 | -47.42134 | 31833 ft | 486 kts | 321° |
| 2026-04-21 00:41 | -22.57294 | -47.44345 | 32142 ft | 486 kts | 321° |
| 2026-04-21 00:42 | -22.54613 | -47.46572 | 32460 ft | 486 kts | 320° |
| 2026-04-21 00:42 | -22.51969 | -47.48778 | 32781 ft | 486 kts | 320° |
| 2026-04-21 00:42 | -22.49299 | -47.51007 | 33105 ft | 485 kts | 320° |
| 2026-04-21 00:42 | -22.46622 | -47.53241 | 33425 ft | 485 kts | 320° |
| 2026-04-21 00:43 | -22.43812 | -47.55265 | 33759 ft | 487 kts | 332° |
| 2026-04-21 00:43 | -22.40630 | -47.56489 | 34114 ft | 489 kts | 347° |
| 2026-04-21 00:43 | -22.37277 | -47.57135 | 34380 ft | 489 kts | 349° |
| 2026-04-21 00:43 | -22.33918 | -47.57741 | 34652 ft | 490 kts | 349° |
| 2026-04-21 00:44 | -22.30555 | -47.58324 | 34926 ft | 489 kts | 349° |
| 2026-04-21 00:44 | -22.27189 | -47.58897 | 35221 ft | 489 kts | 349° |
| 2026-04-21 00:44 | -22.23840 | -47.59463 | 35542 ft | 487 kts | 349° |
| 2026-04-21 00:45 | -22.17143 | -47.60589 | 36071 ft | 487 kts | 349° |
| 2026-04-21 00:45 | -22.13797 | -47.61149 | 36105 ft | 486 kts | 349° |
| 2026-04-21 00:45 | -22.07137 | -47.62264 | 36090 ft | 483 kts | 349° |
| 2026-04-21 00:46 | -22.00487 | -47.63377 | 36092 ft | 484 kts | 349° |
| 2026-04-21 00:46 | -21.93829 | -47.64489 | 36089 ft | 484 kts | 349° |
| 2026-04-21 00:47 | -21.87180 | -47.65599 | 36085 ft | 484 kts | 349° |
| 2026-04-21 00:47 | -21.80530 | -47.66708 | 36085 ft | 484 kts | 349° |
| 2026-04-21 00:48 | -21.73875 | -47.67816 | 36077 ft | 484 kts | 349° |
| 2026-04-21 00:48 | -21.67221 | -47.68924 | 36075 ft | 484 kts | 349° |
| 2026-04-21 00:49 | -21.60559 | -47.70029 | 36075 ft | 484 kts | 349° |
| 2026-04-21 00:49 | -21.53937 | -47.71114 | 36071 ft | 484 kts | 349° |
| 2026-04-21 00:50 | -21.47277 | -47.72206 | 36072 ft | 484 kts | 349° |
| 2026-04-21 00:50 | -21.40615 | -47.73296 | 36060 ft | 484 kts | 349° |
| 2026-04-21 00:51 | -21.35022 | -47.74211 | 36057 ft | 485 kts | 349° |
| 2026-04-21 00:51 | -21.28398 | -47.75294 | 36050 ft | 485 kts | 349° |
| 2026-04-21 00:52 | -21.21728 | -47.76383 | 36048 ft | 485 kts | 349° |
| 2026-04-21 00:52 | -21.15051 | -47.77464 | 36046 ft | 485 kts | 351° |
| 2026-04-21 00:53 | -21.08350 | -47.78370 | 36050 ft | 485 kts | 351° |
| 2026-04-21 00:53 | -21.01646 | -47.79283 | 36047 ft | 486 kts | 351° |
| 2026-04-21 00:54 | -20.94937 | -47.80200 | 36049 ft | 486 kts | 351° |
| 2026-04-21 00:54 | -20.88230 | -47.81116 | 36049 ft | 486 kts | 351° |
| 2026-04-21 00:55 | -20.81515 | -47.82033 | 36052 ft | 486 kts | 351° |
| 2026-04-21 00:55 | -20.74845 | -47.82943 | 36043 ft | 486 kts | 351° |
| 2026-04-21 00:56 | -20.68127 | -47.83859 | 36050 ft | 486 kts | 351° |
| 2026-04-21 00:56 | -20.61418 | -47.84773 | 36040 ft | 486 kts | 351° |
| 2026-04-21 00:57 | -20.54691 | -47.85688 | 36044 ft | 486 kts | 351° |
| 2026-04-21 00:57 | -20.47975 | -47.86601 | 36037 ft | 486 kts | 351° |
| 2026-04-21 00:58 | -20.41258 | -47.87513 | 36030 ft | 486 kts | 351° |
| 2026-04-21 00:58 | -20.34548 | -47.88424 | 36035 ft | 487 kts | 351° |
| 2026-04-21 00:59 | -20.27862 | -47.89331 | 36033 ft | 487 kts | 351° |
| 2026-04-21 00:59 | -20.21136 | -47.90243 | 36029 ft | 487 kts | 351° |
| 2026-04-21 01:00 | -20.14411 | -47.91154 | 36022 ft | 487 kts | 351° |
| 2026-04-21 01:00 | -20.07692 | -47.92063 | 36039 ft | 487 kts | 351° |
| 2026-04-21 01:01 | -20.00958 | -47.92974 | 36045 ft | 487 kts | 351° |
| 2026-04-21 01:01 | -19.94238 | -47.93882 | 36058 ft | 487 kts | 351° |
| 2026-04-21 01:02 | -19.87512 | -47.94790 | 36077 ft | 487 kts | 352° |
| 2026-04-21 01:02 | -19.80816 | -47.95693 | 36074 ft | 487 kts | 352° |
| 2026-04-21 01:03 | -19.74081 | -47.96601 | 36073 ft | 487 kts | 352° |
| 2026-04-21 01:03 | -19.67352 | -47.97507 | 36073 ft | 488 kts | 352° |
| 2026-04-21 01:04 | -19.60621 | -47.98413 | 36067 ft | 488 kts | 352° |
| 2026-04-21 01:04 | -19.53876 | -47.99319 | 36060 ft | 487 kts | 352° |
| 2026-04-21 01:05 | -19.47187 | -48.00218 | 36047 ft | 487 kts | 352° |
| 2026-04-21 01:05 | -19.40454 | -48.01121 | 36038 ft | 487 kts | 352° |
| 2026-04-21 01:06 | -19.33721 | -48.02024 | 36028 ft | 487 kts | 352° |
| 2026-04-21 01:06 | -19.26997 | -48.02957 | 36028 ft | 487 kts | 351° |
| 2026-04-21 01:07 | -19.20272 | -48.03903 | 36026 ft | 487 kts | 351° |
| 2026-04-21 01:07 | -19.13541 | -48.04848 | 36043 ft | 488 kts | 351° |
| 2026-04-21 01:08 | -19.06814 | -48.05792 | 36061 ft | 488 kts | 351° |
| 2026-04-21 01:08 | -19.00081 | -48.06736 | 36073 ft | 488 kts | 351° |
| 2026-04-21 01:09 | -18.93382 | -48.07674 | 36082 ft | 488 kts | 351° |
| 2026-04-21 01:09 | -18.90048 | -48.08326 | 36079 ft | 486 kts | 340° |
| 2026-04-21 01:09 | -18.86877 | -48.09531 | 36093 ft | 485 kts | 339° |
| 2026-04-21 01:10 | -18.80500 | -48.11931 | 36087 ft | 486 kts | 338° |
| 2026-04-21 01:10 | -18.74134 | -48.14353 | 36077 ft | 486 kts | 338° |
| 2026-04-21 01:11 | -18.67768 | -48.16779 | 36057 ft | 487 kts | 338° |
| 2026-04-21 01:11 | -18.61397 | -48.19206 | 36035 ft | 487 kts | 338° |
| 2026-04-21 01:12 | -18.55011 | -48.21637 | 36011 ft | 487 kts | 338° |
| 2026-04-21 01:12 | -18.48631 | -48.24065 | 36003 ft | 488 kts | 338° |
| 2026-04-21 01:13 | -18.42242 | -48.26494 | 36000 ft | 488 kts | 338° |
| 2026-04-21 01:13 | -18.35876 | -48.28913 | 35995 ft | 489 kts | 338° |
| 2026-04-21 01:14 | -18.29468 | -48.31345 | 35994 ft | 489 kts | 338° |
| 2026-04-21 01:14 | -18.23047 | -48.33781 | 35994 ft | 490 kts | 338° |
| 2026-04-21 01:15 | -18.16631 | -48.36216 | 35992 ft | 490 kts | 338° |
| 2026-04-21 01:15 | -18.13441 | -48.37425 | 35748 ft | 485 kts | 338° |
| 2026-04-21 01:15 | -18.10251 | -48.38634 | 34888 ft | 489 kts | 338° |
| 2026-04-21 01:16 | -18.07020 | -48.39859 | 33892 ft | 497 kts | 338° |
| 2026-04-21 01:16 | -18.03756 | -48.41095 | 33055 ft | 498 kts | 338° |
| 2026-04-21 01:16 | -18.00549 | -48.42310 | 32263 ft | 497 kts | 338° |
| 2026-04-21 01:16 | -17.97279 | -48.43547 | 31246 ft | 502 kts | 338° |
| 2026-04-21 01:17 | -17.93960 | -48.44803 | 30466 ft | 500 kts | 338° |
| 2026-04-21 01:17 | -17.90675 | -48.46046 | 29246 ft | 502 kts | 338° |
| 2026-04-21 01:17 | -17.87405 | -48.47282 | 28076 ft | 495 kts | 339° |
| 2026-04-21 01:17 | -17.84184 | -48.48499 | 27245 ft | 491 kts | 339° |
| 2026-04-21 01:18 | -17.81018 | -48.49695 | 26498 ft | 488 kts | 339° |
| 2026-04-21 01:18 | -17.77831 | -48.50899 | 25744 ft | 489 kts | 339° |
| 2026-04-21 01:18 | -17.74621 | -48.52110 | 24966 ft | 491 kts | 339° |
| 2026-04-21 01:18 | -17.71377 | -48.53383 | 24168 ft | 489 kts | 335° |
| 2026-04-21 01:19 | -17.68329 | -48.54869 | 23264 ft | 489 kts | 334° |
| 2026-04-21 01:19 | -17.65283 | -48.56341 | 22410 ft | 474 kts | 334° |
| 2026-04-21 01:19 | -17.62346 | -48.57740 | 21773 ft | 456 kts | 335° |
| 2026-04-21 01:19 | -17.59501 | -48.59086 | 21073 ft | 440 kts | 335° |
| 2026-04-21 01:20 | -17.56682 | -48.60416 | 20339 ft | 449 kts | 335° |
| 2026-04-21 01:20 | -17.53819 | -48.61767 | 19628 ft | 453 kts | 335° |
| 2026-04-21 01:20 | -17.50940 | -48.63125 | 18938 ft | 453 kts | 335° |
| 2026-04-21 01:20 | -17.48071 | -48.64478 | 18234 ft | 449 kts | 336° |
| 2026-04-21 01:21 | -17.45251 | -48.65819 | 17361 ft | 443 kts | 335° |
| 2026-04-21 01:21 | -17.42458 | -48.67155 | 16711 ft | 438 kts | 336° |
| 2026-04-21 01:21 | -17.39699 | -48.68474 | 16068 ft | 435 kts | 336° |
| 2026-04-21 01:21 | -17.36953 | -48.69785 | 15470 ft | 431 kts | 336° |
| 2026-04-21 01:22 | -17.34241 | -48.71080 | 14818 ft | 428 kts | 336° |
| 2026-04-21 01:22 | -17.31547 | -48.72365 | 14293 ft | 423 kts | 336° |
| 2026-04-21 01:22 | -17.28943 | -48.73608 | 13676 ft | 410 kts | 336° |
| 2026-04-21 01:22 | -17.26347 | -48.74845 | 12828 ft | 399 kts | 336° |
| 2026-04-21 01:23 | -17.23895 | -48.76014 | 12223 ft | 385 kts | 336° |
| 2026-04-21 01:23 | -17.21526 | -48.77144 | 11951 ft | 364 kts | 336° |
| 2026-04-21 01:23 | -17.19287 | -48.78211 | 11750 ft | 343 kts | 336° |
| 2026-04-21 01:23 | -17.17173 | -48.79218 | 11559 ft | 324 kts | 336° |
| 2026-04-21 01:24 | -17.15180 | -48.80166 | 11387 ft | 307 kts | 337° |
| 2026-04-21 01:24 | -17.13290 | -48.81066 | 11233 ft | 290 kts | 337° |
| 2026-04-21 01:24 | -17.11499 | -48.81919 | 11062 ft | 275 kts | 337° |
| 2026-04-21 01:24 | -17.09774 | -48.82738 | 10906 ft | 274 kts | 337° |
| 2026-04-21 01:25 | -17.07993 | -48.83586 | 10760 ft | 286 kts | 337° |
| 2026-04-21 01:25 | -17.06167 | -48.84453 | 10607 ft | 291 kts | 337° |
| 2026-04-21 01:25 | -17.04315 | -48.85334 | 10471 ft | 292 kts | 337° |
| 2026-04-21 01:25 | -17.02465 | -48.86212 | 10319 ft | 292 kts | 337° |
| 2026-04-21 01:26 | -17.00620 | -48.87089 | 10196 ft | 291 kts | 337° |
| 2026-04-21 01:26 | -16.98774 | -48.87966 | 10010 ft | 291 kts | 337° |
| 2026-04-21 01:26 | -16.96936 | -48.88839 | 9683 ft | 289 kts | 337° |
| 2026-04-21 01:26 | -16.95106 | -48.89708 | 9350 ft | 289 kts | 337° |
| 2026-04-21 01:27 | -16.93315 | -48.90558 | 9072 ft | 278 kts | 337° |
| 2026-04-21 01:27 | -16.91586 | -48.91378 | 8759 ft | 268 kts | 337° |
| 2026-04-21 01:27 | -16.89923 | -48.92166 | 8475 ft | 255 kts | 337° |
| 2026-04-21 01:27 | -16.88354 | -48.92910 | 8201 ft | 241 kts | 337° |
| 2026-04-21 01:28 | -16.86861 | -48.93619 | 7941 ft | 229 kts | 337° |
| 2026-04-21 01:28 | -16.85453 | -48.94286 | 7713 ft | 217 kts | 337° |
| 2026-04-21 01:28 | -16.84129 | -48.94915 | 7567 ft | 201 kts | 337° |
| 2026-04-21 01:28 | -16.82921 | -48.95487 | 7448 ft | 186 kts | 337° |
| 2026-04-21 01:29 | -16.81735 | -48.96049 | 7374 ft | 192 kts | 338° |
| 2026-04-21 01:29 | -16.80496 | -48.96636 | 7318 ft | 199 kts | 337° |
| 2026-04-21 01:29 | -16.79238 | -48.97232 | 7218 ft | 196 kts | 337° |
| 2026-04-21 01:29 | -16.78015 | -48.97811 | 7059 ft | 191 kts | 336° |
| 2026-04-21 01:30 | -16.76838 | -48.98444 | 6885 ft | 191 kts | 321° |
| 2026-04-21 01:30 | -16.75952 | -48.99459 | 6703 ft | 190 kts | 305° |
| 2026-04-21 01:30 | -16.75234 | -49.00614 | 6519 ft | 190 kts | 301° |
| 2026-04-21 01:30 | -16.74550 | -49.01813 | 6315 ft | 190 kts | 300° |
| 2026-04-21 01:31 | -16.73895 | -49.02985 | 6140 ft | 189 kts | 299° |
| 2026-04-21 01:31 | -16.73240 | -49.04156 | 5932 ft | 182 kts | 299° |
| 2026-04-21 01:31 | -16.72621 | -49.05266 | 5729 ft | 173 kts | 299° |
| 2026-04-21 01:31 | -16.72022 | -49.06340 | 5515 ft | 170 kts | 299° |
| 2026-04-21 01:32 | -16.71432 | -49.07397 | 5337 ft | 169 kts | 299° |
| 2026-04-21 01:32 | -16.70841 | -49.08456 | 5123 ft | 168 kts | 299° |
| 2026-04-21 01:32 | -16.70251 | -49.09512 | 4915 ft | 168 kts | 299° |
| 2026-04-21 01:32 | -16.69664 | -49.10562 | 4702 ft | 166 kts | 299° |
| 2026-04-21 01:33 | -16.69082 | -49.11602 | 4486 ft | 166 kts | 299° |
| 2026-04-21 01:33 | -16.68503 | -49.12637 | 4281 ft | 164 kts | 299° |
| 2026-04-21 01:33 | -16.67930 | -49.13660 | 4070 ft | 163 kts | 299° |
| 2026-04-21 01:33 | -16.67359 | -49.14681 | 3859 ft | 163 kts | 300° |
| 2026-04-21 01:34 | -16.66790 | -49.15697 | 3682 ft | 161 kts | 300° |
| 2026-04-21 01:34 | -16.66230 | -49.16695 | 3481 ft | 158 kts | 300° |
| 2026-04-21 01:34 | -16.65695 | -49.17680 | 3240 ft | 154 kts | 300° |
| 2026-04-21 01:34 | -16.65172 | -49.18621 | 2986 ft | 150 kts | 301° |
| 2026-04-21 01:35 | -16.64655 | -49.19555 | 2756 ft | 147 kts | 299° |
| 2026-04-21 01:35 | -16.64139 | -49.20475 | 2612 ft | 147 kts | 301° |
| 2026-04-21 01:35 | -16.63611 | -49.21385 | 2475 ft | 142 kts | 302° |
| 2026-04-21 01:35 | -16.63258 | -49.22004 | 2466 ft | 45 kts | 302° |
| 2026-04-21 01:36 | -16.63097 | -49.22288 | 2464 ft | 44 kts | 300° |
| 2026-04-21 01:36 | -16.62968 | -49.22503 | 2462 ft | 25 kts | 309° |
| 2026-04-21 01:36 | -16.62857 | -49.22606 | 2462 ft | 22 kts | 328° |
| 2026-04-21 01:36 | -16.62788 | -49.22646 | 2465 ft | 8 kts | 340° |
| 2026-04-21 01:37 | -16.62782 | -49.22647 | 2464 ft | 0 kts | 354° |
| 2026-04-21 01:37 | -16.62774 | -49.22647 | 2461 ft | 2 kts | 1° |
| 2026-04-21 01:37 | -16.62750 | -49.22637 | 2463 ft | 5 kts | 37° |
| 2026-04-21 01:38 | -16.62737 | -49.22613 | 2463 ft | 6 kts | 78° |
| 2026-04-21 01:38 | -16.62761 | -49.22548 | 2465 ft | 9 kts | 120° |
| 2026-04-21 01:38 | -16.62782 | -49.22509 | 2463 ft | 10 kts | 120° |
| 2026-04-21 01:38 | -16.62820 | -49.22442 | 2464 ft | 12 kts | 121° |
| 2026-04-21 01:39 | -16.62865 | -49.22362 | 2467 ft | 14 kts | 120° |
| 2026-04-21 01:39 | -16.62917 | -49.22270 | 2461 ft | 16 kts | 121° |
| 2026-04-21 01:39 | -16.62972 | -49.22165 | 2461 ft | 17 kts | 114° |
| 2026-04-21 01:39 | -16.62993 | -49.22045 | 2464 ft | 16 kts | 88° |
| 2026-04-21 01:40 | -16.62974 | -49.21933 | 2462 ft | 16 kts | 77° |
| 2026-04-21 01:40 | -16.62949 | -49.21818 | 2462 ft | 16 kts | 78° |
| 2026-04-21 01:40 | -16.62925 | -49.21702 | 2465 ft | 17 kts | 77° |
| 2026-04-21 01:40 | -16.62921 | -49.21653 | 2465 ft | 7 kts | 108° |
| 2026-04-21 01:41 | -16.62934 | -49.21633 | 2464 ft | 4 kts | 140° |
| 2026-04-21 01:41 | -16.62952 | -49.21615 | 2465 ft | 2 kts | 138° |
| 2026-04-21 01:42 | -16.62962 | -49.21611 | 2468 ft | 2 kts | 157° |
| 2026-04-21 01:42 | -16.62998 | -49.21592 | 2464 ft | 4 kts | 123° |
| 2026-04-21 01:42 | -16.62998 | -49.21584 | 2462 ft | 0 kts | 73° |
| 2026-04-21 01:42 | -16.62986 | -49.21554 | 2466 ft | 3 kts | 65° |
| 2026-04-21 01:43 | -16.62980 | -49.21541 | 2464 ft | 0 kts | 65° |